sensor_id;sensor_type;location;lat;lon;timestamp;P1;durP1;ratioP1;P2;durP2;ratioP2
7116;SDS011;3600;48.568;7.870;2023-04-27T00:01:53;5.13;;;4.25;;
7116;SDS011;3600;48.568;7.870;2023-04-27T00:04:41;6.57;;;5.25;;
7116;SDS011;3600;48.568;7.870;2023-04-27T00:07:22;5.93;;;4.88;;
7116;SDS011;3600;48.568;7.870;2023-04-27T00:10:13;6.43;;;4.45;;
7116;SDS011;3600;48.568;7.870;2023-04-27T00:12:41;5.03;;;4.53;;
7116;SDS011;3600;48.568;7.870;2023-04-27T00:15:12;4.72;;;4.32;;
7116;SDS011;3600;48.568;7.870;2023-04-27T00:17:44;4.43;;;4.03;;
7116;SDS011;3600;48.568;7.870;2023-04-27T00:20:21;4.97;;;4.35;;
7116;SDS011;3600;48.568;7.870;2023-04-27T00:23:16;5.28;;;4.78;;
7116;SDS011;3600;48.568;7.870;2023-04-27T00:25:59;4.63;;;4.18;;
7116;SDS011;3600;48.568;7.870;2023-04-27T00:28:42;5.18;;;4.68;;
7116;SDS011;3600;48.568;7.870;2023-04-27T00:31:30;4.70;;;4.20;;
7116;SDS011;3600;48.568;7.870;2023-04-27T00:34:30;4.78;;;4.38;;
7116;SDS011;3600;48.568;7.870;2023-04-27T00:40:00;5.95;;;4.50;;
7116;SDS011;3600;48.568;7.870;2023-04-27T00:42:48;4.93;;;4.43;;
7116;SDS011;3600;48.568;7.870;2023-04-27T00:45:23;6.88;;;5.45;;
7116;SDS011;3600;48.568;7.870;2023-04-27T00:47:53;5.55;;;4.85;;
7116;SDS011;3600;48.568;7.870;2023-04-27T00:50:25;6.05;;;5.13;;
7116;SDS011;3600;48.568;7.870;2023-04-27T00:52:55;6.78;;;4.43;;
7116;SDS011;3600;48.568;7.870;2023-04-27T00:55:22;6.80;;;4.65;;
7116;SDS011;3600;48.568;7.870;2023-04-27T00:57:50;5.90;;;4.53;;
7116;SDS011;3600;48.568;7.870;2023-04-27T01:00:17;4.95;;;4.55;;
7116;SDS011;3600;48.568;7.870;2023-04-27T01:02:50;6.55;;;4.70;;
7116;SDS011;3600;48.568;7.870;2023-04-27T01:05:20;5.15;;;4.65;;
7116;SDS011;3600;48.568;7.870;2023-04-27T01:07:55;4.70;;;4.30;;
7116;SDS011;3600;48.568;7.870;2023-04-27T01:10:23;5.57;;;4.55;;
7116;SDS011;3600;48.568;7.870;2023-04-27T01:12:58;5.85;;;4.72;;
7116;SDS011;3600;48.568;7.870;2023-04-27T01:15:30;4.82;;;4.38;;
7116;SDS011;3600;48.568;7.870;2023-04-27T01:18:00;9.38;;;5.10;;
7116;SDS011;3600;48.568;7.870;2023-04-27T01:20:36;7.10;;;4.43;;
7116;SDS011;3600;48.568;7.870;2023-04-27T01:23:04;4.78;;;4.20;;
7116;SDS011;3600;48.568;7.870;2023-04-27T01:25:34;4.60;;;3.97;;
7116;SDS011;3600;48.568;7.870;2023-04-27T01:28:01;5.50;;;4.78;;
7116;SDS011;3600;48.568;7.870;2023-04-27T01:30:28;5.93;;;5.28;;
7116;SDS011;3600;48.568;7.870;2023-04-27T01:32:55;5.18;;;4.78;;
7116;SDS011;3600;48.568;7.870;2023-04-27T01:35:22;7.65;;;5.40;;
7116;SDS011;3600;48.568;7.870;2023-04-27T01:37:53;6.10;;;5.47;;
7116;SDS011;3600;48.568;7.870;2023-04-27T01:40:21;10.60;;;6.82;;
7116;SDS011;3600;48.568;7.870;2023-04-27T01:42:48;7.75;;;6.18;;
7116;SDS011;3600;48.568;7.870;2023-04-27T01:45:15;9.60;;;5.85;;
7116;SDS011;3600;48.568;7.870;2023-04-27T01:47:42;9.73;;;5.85;;
7116;SDS011;3600;48.568;7.870;2023-04-27T01:50:10;8.43;;;5.68;;
7116;SDS011;3600;48.568;7.870;2023-04-27T01:52:37;5.90;;;5.38;;
7116;SDS011;3600;48.568;7.870;2023-04-27T01:55:04;5.50;;;5.00;;
7116;SDS011;3600;48.568;7.870;2023-04-27T01:57:31;10.02;;;5.15;;
7116;SDS011;3600;48.568;7.870;2023-04-27T01:59:58;6.32;;;5.20;;
7116;SDS011;3600;48.568;7.870;2023-04-27T02:02:28;6.80;;;5.15;;
7116;SDS011;3600;48.568;7.870;2023-04-27T02:04:59;5.22;;;4.72;;
7116;SDS011;3600;48.568;7.870;2023-04-27T02:07:26;6.10;;;4.85;;
7116;SDS011;3600;48.568;7.870;2023-04-27T02:09:53;5.43;;;4.97;;
7116;SDS011;3600;48.568;7.870;2023-04-27T02:12:19;5.43;;;4.93;;
7116;SDS011;3600;48.568;7.870;2023-04-27T02:14:47;5.18;;;4.78;;
7116;SDS011;3600;48.568;7.870;2023-04-27T02:17:14;9.88;;;5.47;;
7116;SDS011;3600;48.568;7.870;2023-04-27T02:19:41;6.38;;;5.78;;
7116;SDS011;3600;48.568;7.870;2023-04-27T02:22:08;6.68;;;5.97;;
7116;SDS011;3600;48.568;7.870;2023-04-27T02:24:35;5.95;;;5.22;;
7116;SDS011;3600;48.568;7.870;2023-04-27T02:27:02;7.95;;;6.07;;
7116;SDS011;3600;48.568;7.870;2023-04-27T02:29:30;6.38;;;5.85;;
7116;SDS011;3600;48.568;7.870;2023-04-27T02:31:57;6.43;;;5.82;;
7116;SDS011;3600;48.568;7.870;2023-04-27T02:34:24;5.97;;;5.38;;
7116;SDS011;3600;48.568;7.870;2023-04-27T02:36:51;6.55;;;5.93;;
7116;SDS011;3600;48.568;7.870;2023-04-27T02:39:18;6.53;;;5.72;;
7116;SDS011;3600;48.568;7.870;2023-04-27T02:41:44;6.40;;;5.63;;
7116;SDS011;3600;48.568;7.870;2023-04-27T02:44:12;6.07;;;5.55;;
7116;SDS011;3600;48.568;7.870;2023-04-27T02:46:38;5.97;;;5.38;;
7116;SDS011;3600;48.568;7.870;2023-04-27T02:49:05;6.50;;;5.68;;
7116;SDS011;3600;48.568;7.870;2023-04-27T02:51:32;6.65;;;6.00;;
7116;SDS011;3600;48.568;7.870;2023-04-27T02:53:58;6.30;;;5.70;;
7116;SDS011;3600;48.568;7.870;2023-04-27T02:56:26;8.60;;;5.47;;
7116;SDS011;3600;48.568;7.870;2023-04-27T02:58:53;5.93;;;5.03;;
7116;SDS011;3600;48.568;7.870;2023-04-27T03:01:19;5.18;;;4.68;;
7116;SDS011;3600;48.568;7.870;2023-04-27T03:03:46;5.40;;;4.90;;
7116;SDS011;3600;48.568;7.870;2023-04-27T03:06:14;5.60;;;5.00;;
7116;SDS011;3600;48.568;7.870;2023-04-27T03:08:40;5.65;;;5.07;;
7116;SDS011;3600;48.568;7.870;2023-04-27T03:11:07;9.13;;;6.38;;
7116;SDS011;3600;48.568;7.870;2023-04-27T03:13:34;7.75;;;5.97;;
7116;SDS011;3600;48.568;7.870;2023-04-27T03:16:08;9.00;;;5.10;;
7116;SDS011;3600;48.568;7.870;2023-04-27T03:18:38;5.60;;;5.10;;
7116;SDS011;3600;48.568;7.870;2023-04-27T03:21:06;6.15;;;4.70;;
7116;SDS011;3600;48.568;7.870;2023-04-27T03:23:34;5.03;;;4.63;;
7116;SDS011;3600;48.568;7.870;2023-04-27T03:26:07;6.25;;;5.65;;
7116;SDS011;3600;48.568;7.870;2023-04-27T03:28:36;5.72;;;5.03;;
7116;SDS011;3600;48.568;7.870;2023-04-27T03:31:04;6.80;;;4.97;;
7116;SDS011;3600;48.568;7.870;2023-04-27T03:33:32;7.03;;;5.72;;
7116;SDS011;3600;48.568;7.870;2023-04-27T03:35:59;5.75;;;5.25;;
7116;SDS011;3600;48.568;7.870;2023-04-27T03:38:29;5.82;;;5.22;;
7116;SDS011;3600;48.568;7.870;2023-04-27T03:40:56;5.88;;;5.20;;
7116;SDS011;3600;48.568;7.870;2023-04-27T03:43:28;5.82;;;5.32;;
7116;SDS011;3600;48.568;7.870;2023-04-27T03:45:55;7.10;;;6.40;;
7116;SDS011;3600;48.568;7.870;2023-04-27T03:48:22;5.68;;;5.18;;
7116;SDS011;3600;48.568;7.870;2023-04-27T03:50:51;7.20;;;6.40;;
7116;SDS011;3600;48.568;7.870;2023-04-27T03:53:18;6.57;;;5.13;;
7116;SDS011;3600;48.568;7.870;2023-04-27T03:55:45;6.07;;;5.57;;
7116;SDS011;3600;48.568;7.870;2023-04-27T03:58:13;9.10;;;5.70;;
7116;SDS011;3600;48.568;7.870;2023-04-27T04:00:47;7.32;;;6.10;;
7116;SDS011;3600;48.568;7.870;2023-04-27T04:03:15;7.38;;;5.80;;
7116;SDS011;3600;48.568;7.870;2023-04-27T04:05:43;6.77;;;5.20;;
7116;SDS011;3600;48.568;7.870;2023-04-27T04:08:12;5.68;;;5.15;;
7116;SDS011;3600;48.568;7.870;2023-04-27T04:10:39;6.88;;;5.45;;
7116;SDS011;3600;48.568;7.870;2023-04-27T04:13:09;6.57;;;5.70;;
7116;SDS011;3600;48.568;7.870;2023-04-27T04:15:36;6.78;;;5.60;;
7116;SDS011;3600;48.568;7.870;2023-04-27T04:18:03;6.10;;;5.25;;
7116;SDS011;3600;48.568;7.870;2023-04-27T04:20:30;6.53;;;5.28;;
7116;SDS011;3600;48.568;7.870;2023-04-27T04:22:59;5.72;;;5.22;;
7116;SDS011;3600;48.568;7.870;2023-04-27T04:25:28;7.70;;;6.03;;
7116;SDS011;3600;48.568;7.870;2023-04-27T04:27:57;6.47;;;5.88;;
7116;SDS011;3600;48.568;7.870;2023-04-27T04:30:24;8.48;;;6.43;;
7116;SDS011;3600;48.568;7.870;2023-04-27T04:32:57;5.97;;;5.33;;
7116;SDS011;3600;48.568;7.870;2023-04-27T04:35:29;7.00;;;5.93;;
7116;SDS011;3600;48.568;7.870;2023-04-27T04:37:58;7.30;;;6.50;;
7116;SDS011;3600;48.568;7.870;2023-04-27T04:40:31;6.47;;;5.93;;
7116;SDS011;3600;48.568;7.870;2023-04-27T04:43:00;8.07;;;6.03;;
7116;SDS011;3600;48.568;7.870;2023-04-27T04:45:33;7.57;;;6.55;;
7116;SDS011;3600;48.568;7.870;2023-04-27T04:48:03;7.97;;;7.13;;
7116;SDS011;3600;48.568;7.870;2023-04-27T04:50:32;8.20;;;7.10;;
7116;SDS011;3600;48.568;7.870;2023-04-27T04:53:01;7.40;;;6.70;;
7116;SDS011;3600;48.568;7.870;2023-04-27T04:55:35;8.93;;;6.97;;
7116;SDS011;3600;48.568;7.870;2023-04-27T04:58:06;8.50;;;6.70;;
7116;SDS011;3600;48.568;7.870;2023-04-27T05:00:41;7.57;;;6.87;;
7116;SDS011;3600;48.568;7.870;2023-04-27T05:03:11;8.20;;;7.13;;
7116;SDS011;3600;48.568;7.870;2023-04-27T05:05:43;7.93;;;7.13;;
7116;SDS011;3600;48.568;7.870;2023-04-27T05:08:10;8.52;;;6.93;;
7116;SDS011;3600;48.568;7.870;2023-04-27T05:10:38;7.40;;;6.63;;
7116;SDS011;3600;48.568;7.870;2023-04-27T05:13:05;10.80;;;7.27;;
7116;SDS011;3600;48.568;7.870;2023-04-27T05:15:32;8.23;;;6.97;;
7116;SDS011;3600;48.568;7.870;2023-04-27T05:18:02;7.90;;;7.10;;
7116;SDS011;3600;48.568;7.870;2023-04-27T05:20:36;8.20;;;7.40;;
7116;SDS011;3600;48.568;7.870;2023-04-27T05:23:08;7.82;;;7.03;;
7116;SDS011;3600;48.568;7.870;2023-04-27T05:25:40;8.13;;;7.40;;
7116;SDS011;3600;48.568;7.870;2023-04-27T05:28:07;11.15;;;7.28;;
7116;SDS011;3600;48.568;7.870;2023-04-27T05:33:37;9.07;;;7.55;;
7116;SDS011;3600;48.568;7.870;2023-04-27T05:36:07;7.65;;;6.78;;
7116;SDS011;3600;48.568;7.870;2023-04-27T05:38:34;9.13;;;8.23;;
7116;SDS011;3600;48.568;7.870;2023-04-27T05:41:05;7.63;;;6.95;;
7116;SDS011;3600;48.568;7.870;2023-04-27T05:43:36;9.52;;;7.55;;
7116;SDS011;3600;48.568;7.870;2023-04-27T05:46:04;7.75;;;7.05;;
7116;SDS011;3600;48.568;7.870;2023-04-27T05:48:31;8.43;;;7.45;;
7116;SDS011;3600;48.568;7.870;2023-04-27T05:51:03;7.40;;;6.70;;
7116;SDS011;3600;48.568;7.870;2023-04-27T05:53:31;9.52;;;7.72;;
7116;SDS011;3600;48.568;7.870;2023-04-27T05:55:58;8.55;;;7.72;;
7116;SDS011;3600;48.568;7.870;2023-04-27T05:58:36;10.98;;;8.45;;
7116;SDS011;3600;48.568;7.870;2023-04-27T06:01:06;8.73;;;7.85;;
7116;SDS011;3600;48.568;7.870;2023-04-27T06:03:36;8.68;;;7.78;;
7116;SDS011;3600;48.568;7.870;2023-04-27T06:06:06;8.48;;;7.68;;
7116;SDS011;3600;48.568;7.870;2023-04-27T06:08:34;7.93;;;7.13;;
7116;SDS011;3600;48.568;7.870;2023-04-27T06:11:04;8.77;;;7.85;;
7116;SDS011;3600;48.568;7.870;2023-04-27T06:13:34;9.02;;;7.65;;
7116;SDS011;3600;48.568;7.870;2023-04-27T06:16:01;9.43;;;7.20;;
7116;SDS011;3600;48.568;7.870;2023-04-27T06:18:28;7.95;;;7.13;;
7116;SDS011;3600;48.568;7.870;2023-04-27T06:20:58;7.57;;;6.95;;
7116;SDS011;3600;48.568;7.870;2023-04-27T06:23:28;9.93;;;8.50;;
7116;SDS011;3600;48.568;7.870;2023-04-27T06:25:54;9.27;;;7.88;;
7116;SDS011;3600;48.568;7.870;2023-04-27T06:28:35;9.05;;;8.15;;
7116;SDS011;3600;48.568;7.870;2023-04-27T06:31:04;10.43;;;9.38;;
7116;SDS011;3600;48.568;7.870;2023-04-27T06:33:32;11.15;;;10.10;;
7116;SDS011;3600;48.568;7.870;2023-04-27T06:36:03;12.63;;;9.48;;
7116;SDS011;3600;48.568;7.870;2023-04-27T06:38:31;11.05;;;10.05;;
7116;SDS011;3600;48.568;7.870;2023-04-27T06:40:58;8.82;;;8.02;;
7116;SDS011;3600;48.568;7.870;2023-04-27T06:43:30;14.38;;;12.90;;
7116;SDS011;3600;48.568;7.870;2023-04-27T06:46:15;10.15;;;9.20;;
7116;SDS011;3600;48.568;7.870;2023-04-27T06:49:03;10.48;;;9.45;;
7116;SDS011;3600;48.568;7.870;2023-04-27T06:51:39;10.18;;;9.07;;
7116;SDS011;3600;48.568;7.870;2023-04-27T06:54:16;11.35;;;9.38;;
7116;SDS011;3600;48.568;7.870;2023-04-27T06:56:51;10.32;;;8.63;;
7116;SDS011;3600;48.568;7.870;2023-04-27T06:59:23;9.65;;;8.70;;
7116;SDS011;3600;48.568;7.870;2023-04-27T07:01:53;12.75;;;8.57;;
7116;SDS011;3600;48.568;7.870;2023-04-27T07:04:20;10.18;;;9.18;;
7116;SDS011;3600;48.568;7.870;2023-04-27T07:07:11;9.68;;;8.77;;
7116;SDS011;3600;48.568;7.870;2023-04-27T07:12:44;10.77;;;8.30;;
7116;SDS011;3600;48.568;7.870;2023-04-27T07:15:24;9.68;;;8.30;;
7116;SDS011;3600;48.568;7.870;2023-04-27T07:17:55;8.40;;;7.60;;
7116;SDS011;3600;48.568;7.870;2023-04-27T07:20:53;8.45;;;7.57;;
7116;SDS011;3600;48.568;7.870;2023-04-27T07:23:38;9.50;;;8.10;;
7116;SDS011;3600;48.568;7.870;2023-04-27T07:26:29;8.60;;;7.70;;
7116;SDS011;3600;48.568;7.870;2023-04-27T07:29:17;8.38;;;7.55;;
7116;SDS011;3600;48.568;7.870;2023-04-27T07:31:58;7.93;;;7.22;;
7116;SDS011;3600;48.568;7.870;2023-04-27T07:34:45;8.70;;;7.32;;
7116;SDS011;3600;48.568;7.870;2023-04-27T07:37:47;8.00;;;6.78;;
7116;SDS011;3600;48.568;7.870;2023-04-27T07:40:43;10.45;;;7.80;;
7116;SDS011;3600;48.568;7.870;2023-04-27T07:43:10;8.98;;;7.07;;
7116;SDS011;3600;48.568;7.870;2023-04-27T07:49:53;7.95;;;7.13;;
7116;SDS011;3600;48.568;7.870;2023-04-27T07:52:34;7.50;;;6.65;;
7116;SDS011;3600;48.568;7.870;2023-04-27T07:55:02;10.63;;;6.78;;
7116;SDS011;3600;48.568;7.870;2023-04-27T07:57:43;7.68;;;6.93;;
7116;SDS011;3600;48.568;7.870;2023-04-27T08:00:40;8.57;;;6.28;;
7116;SDS011;3600;48.568;7.870;2023-04-27T08:03:20;7.60;;;6.80;;
7116;SDS011;3600;48.568;7.870;2023-04-27T08:05:54;7.68;;;6.97;;
7116;SDS011;3600;48.568;7.870;2023-04-27T08:08:38;7.70;;;6.85;;
7116;SDS011;3600;48.568;7.870;2023-04-27T08:11:47;7.32;;;6.63;;
7116;SDS011;3600;48.568;7.870;2023-04-27T08:14:28;8.10;;;7.30;;
7116;SDS011;3600;48.568;7.870;2023-04-27T08:17:18;8.50;;;6.82;;
7116;SDS011;3600;48.568;7.870;2023-04-27T08:20:33;9.13;;;6.20;;
7116;SDS011;3600;48.568;7.870;2023-04-27T08:23:03;10.77;;;6.95;;
7116;SDS011;3600;48.568;7.870;2023-04-27T08:25:54;6.82;;;6.15;;
7116;SDS011;3600;48.568;7.870;2023-04-27T08:29:00;7.30;;;6.60;;
7116;SDS011;3600;48.568;7.870;2023-04-27T08:31:59;7.00;;;6.30;;
7116;SDS011;3600;48.568;7.870;2023-04-27T08:34:27;8.18;;;6.55;;
7116;SDS011;3600;48.568;7.870;2023-04-27T08:36:57;8.20;;;6.32;;
7116;SDS011;3600;48.568;7.870;2023-04-27T08:39:36;6.03;;;5.40;;
7116;SDS011;3600;48.568;7.870;2023-04-27T08:42:10;6.78;;;5.95;;
7116;SDS011;3600;48.568;7.870;2023-04-27T08:44:57;8.00;;;6.22;;
7116;SDS011;3600;48.568;7.870;2023-04-27T08:47:50;8.38;;;6.20;;
7116;SDS011;3600;48.568;7.870;2023-04-27T08:50:16;6.78;;;5.78;;
7116;SDS011;3600;48.568;7.870;2023-04-27T08:52:59;6.35;;;5.68;;
7116;SDS011;3600;48.568;7.870;2023-04-27T08:55:46;7.05;;;5.85;;
7116;SDS011;3600;48.568;7.870;2023-04-27T08:58:35;6.68;;;5.05;;
7116;SDS011;3600;48.568;7.870;2023-04-27T09:01:09;9.70;;;5.60;;
7116;SDS011;3600;48.568;7.870;2023-04-27T09:03:39;7.75;;;5.78;;
7116;SDS011;3600;48.568;7.870;2023-04-27T09:06:06;5.45;;;4.95;;
7116;SDS011;3600;48.568;7.870;2023-04-27T09:11:10;9.18;;;5.38;;
7116;SDS011;3600;48.568;7.870;2023-04-27T09:13:39;5.72;;;5.10;;
7116;SDS011;3600;48.568;7.870;2023-04-27T09:16:07;6.68;;;5.32;;
7116;SDS011;3600;48.568;7.870;2023-04-27T09:18:35;5.53;;;4.82;;
7116;SDS011;3600;48.568;7.870;2023-04-27T09:21:03;6.25;;;4.75;;
7116;SDS011;3600;48.568;7.870;2023-04-27T09:23:34;6.75;;;5.00;;
7116;SDS011;3600;48.568;7.870;2023-04-27T09:26:03;6.10;;;4.80;;
7116;SDS011;3600;48.568;7.870;2023-04-27T09:28:39;6.25;;;4.82;;
7116;SDS011;3600;48.568;7.870;2023-04-27T09:31:12;5.63;;;3.92;;
7116;SDS011;3600;48.568;7.870;2023-04-27T09:33:39;5.15;;;4.75;;
7116;SDS011;3600;48.568;7.870;2023-04-27T09:36:06;7.13;;;4.80;;
7116;SDS011;3600;48.568;7.870;2023-04-27T09:38:33;7.18;;;5.35;;
7116;SDS011;3600;48.568;7.870;2023-04-27T09:41:00;7.95;;;5.38;;
7116;SDS011;3600;48.568;7.870;2023-04-27T09:43:28;8.32;;;5.53;;
7116;SDS011;3600;48.568;7.870;2023-04-27T09:45:57;5.30;;;4.80;;
7116;SDS011;3600;48.568;7.870;2023-04-27T09:48:24;6.35;;;5.05;;
7116;SDS011;3600;48.568;7.870;2023-04-27T09:50:52;5.15;;;4.75;;
7116;SDS011;3600;48.568;7.870;2023-04-27T09:53:19;4.55;;;4.15;;
7116;SDS011;3600;48.568;7.870;2023-04-27T10:01:23;4.35;;;3.88;;
7116;SDS011;3600;48.568;7.870;2023-04-27T10:04:01;4.07;;;3.50;;
7116;SDS011;3600;48.568;7.870;2023-04-27T10:09:21;4.82;;;3.55;;
7116;SDS011;3600;48.568;7.870;2023-04-27T10:11:52;4.35;;;3.53;;
7116;SDS011;3600;48.568;7.870;2023-04-27T10:14:21;4.20;;;3.78;;
7116;SDS011;3600;48.568;7.870;2023-04-27T10:16:51;4.13;;;3.65;;
7116;SDS011;3600;48.568;7.870;2023-04-27T10:19:20;5.75;;;3.55;;
7116;SDS011;3600;48.568;7.870;2023-04-27T10:21:58;6.88;;;4.22;;
7116;SDS011;3600;48.568;7.870;2023-04-27T10:24:37;4.30;;;3.90;;
7116;SDS011;3600;48.568;7.870;2023-04-27T10:27:07;3.95;;;3.58;;
7116;SDS011;3600;48.568;7.870;2023-04-27T10:29:43;4.60;;;3.83;;
7116;SDS011;3600;48.568;7.870;2023-04-27T10:34:44;5.20;;;4.20;;
7116;SDS011;3600;48.568;7.870;2023-04-27T10:37:13;6.22;;;4.50;;
7116;SDS011;3600;48.568;7.870;2023-04-27T10:39:41;8.38;;;4.72;;
7116;SDS011;3600;48.568;7.870;2023-04-27T10:42:24;4.55;;;4.15;;
7116;SDS011;3600;48.568;7.870;2023-04-27T10:44:57;4.78;;;3.85;;
7116;SDS011;3600;48.568;7.870;2023-04-27T10:47:34;3.80;;;3.50;;
7116;SDS011;3600;48.568;7.870;2023-04-27T10:50:04;6.03;;;3.40;;
7116;SDS011;3600;48.568;7.870;2023-04-27T10:52:32;5.47;;;3.50;;
7116;SDS011;3600;48.568;7.870;2023-04-27T10:55:15;6.50;;;3.40;;
7116;SDS011;3600;48.568;7.870;2023-04-27T10:57:50;2.63;;;2.42;;
7116;SDS011;3600;48.568;7.870;2023-04-27T11:02:49;2.95;;;2.40;;
7116;SDS011;3600;48.568;7.870;2023-04-27T11:05:17;3.03;;;2.83;;
7116;SDS011;3600;48.568;7.870;2023-04-27T11:07:47;6.18;;;2.33;;
7116;SDS011;3600;48.568;7.870;2023-04-27T11:10:15;4.65;;;3.22;;
7116;SDS011;3600;48.568;7.870;2023-04-27T11:12:45;3.65;;;2.33;;
7116;SDS011;3600;48.568;7.870;2023-04-27T11:15:12;4.82;;;2.60;;
7116;SDS011;3600;48.568;7.870;2023-04-27T11:17:39;4.75;;;3.10;;
7116;SDS011;3600;48.568;7.870;2023-04-27T11:20:07;3.28;;;2.97;;
7116;SDS011;3600;48.568;7.870;2023-04-27T11:22:44;2.88;;;2.28;;
7116;SDS011;3600;48.568;7.870;2023-04-27T11:25:11;2.90;;;2.70;;
7116;SDS011;3600;48.568;7.870;2023-04-27T11:27:39;3.90;;;2.83;;
7116;SDS011;3600;48.568;7.870;2023-04-27T11:30:17;3.28;;;2.70;;
7116;SDS011;3600;48.568;7.870;2023-04-27T11:32:48;3.13;;;2.92;;
7116;SDS011;3600;48.568;7.870;2023-04-27T11:35:16;3.45;;;2.90;;
7116;SDS011;3600;48.568;7.870;2023-04-27T11:37:43;4.47;;;3.10;;
7116;SDS011;3600;48.568;7.870;2023-04-27T11:40:13;2.95;;;2.17;;
7116;SDS011;3600;48.568;7.870;2023-04-27T11:42:40;3.25;;;1.95;;
7116;SDS011;3600;48.568;7.870;2023-04-27T11:45:12;2.88;;;2.20;;
7116;SDS011;3600;48.568;7.870;2023-04-27T11:47:44;2.67;;;2.10;;
7116;SDS011;3600;48.568;7.870;2023-04-27T11:50:14;3.40;;;2.47;;
7116;SDS011;3600;48.568;7.870;2023-04-27T11:52:41;2.10;;;1.70;;
7116;SDS011;3600;48.568;7.870;2023-04-27T11:55:08;2.13;;;1.90;;
7116;SDS011;3600;48.568;7.870;2023-04-27T11:57:41;2.40;;;2.20;;
7116;SDS011;3600;48.568;7.870;2023-04-27T12:00:08;3.20;;;2.58;;
7116;SDS011;3600;48.568;7.870;2023-04-27T12:02:40;3.15;;;2.40;;
7116;SDS011;3600;48.568;7.870;2023-04-27T12:05:08;2.60;;;2.40;;
7116;SDS011;3600;48.568;7.870;2023-04-27T12:07:38;2.65;;;2.42;;
7116;SDS011;3600;48.568;7.870;2023-04-27T12:10:05;2.50;;;2.13;;
7116;SDS011;3600;48.568;7.870;2023-04-27T12:12:33;3.95;;;2.42;;
7116;SDS011;3600;48.568;7.870;2023-04-27T12:15:00;2.40;;;1.85;;
7116;SDS011;3600;48.568;7.870;2023-04-27T12:17:27;2.67;;;1.90;;
7116;SDS011;3600;48.568;7.870;2023-04-27T12:19:54;2.22;;;1.80;;
7116;SDS011;3600;48.568;7.870;2023-04-27T12:22:21;2.30;;;2.10;;
7116;SDS011;3600;48.568;7.870;2023-04-27T12:24:49;1.90;;;1.80;;
7116;SDS011;3600;48.568;7.870;2023-04-27T12:27:16;2.67;;;1.92;;
7116;SDS011;3600;48.568;7.870;2023-04-27T12:29:43;2.38;;;1.65;;
7116;SDS011;3600;48.568;7.870;2023-04-27T12:32:09;4.13;;;2.25;;
7116;SDS011;3600;48.568;7.870;2023-04-27T12:34:36;1.85;;;1.60;;
7116;SDS011;3600;48.568;7.870;2023-04-27T12:37:04;2.28;;;1.50;;
7116;SDS011;3600;48.568;7.870;2023-04-27T12:39:31;2.17;;;1.52;;
7116;SDS011;3600;48.568;7.870;2023-04-27T12:41:58;4.53;;;1.73;;
7116;SDS011;3600;48.568;7.870;2023-04-27T12:44:25;1.70;;;1.48;;
7116;SDS011;3600;48.568;7.870;2023-04-27T12:46:52;1.70;;;1.60;;
7116;SDS011;3600;48.568;7.870;2023-04-27T12:49:19;1.88;;;1.40;;
7116;SDS011;3600;48.568;7.870;2023-04-27T12:51:46;2.25;;;1.70;;
7116;SDS011;3600;48.568;7.870;2023-04-27T12:54:16;1.63;;;1.52;;
7116;SDS011;3600;48.568;7.870;2023-04-27T12:56:43;1.73;;;1.63;;
7116;SDS011;3600;48.568;7.870;2023-04-27T12:59:10;2.30;;;1.58;;
7116;SDS011;3600;48.568;7.870;2023-04-27T13:01:37;2.17;;;1.58;;
7116;SDS011;3600;48.568;7.870;2023-04-27T13:04:04;1.17;;;1.17;;
7116;SDS011;3600;48.568;7.870;2023-04-27T13:06:32;1.10;;;1.10;;
7116;SDS011;3600;48.568;7.870;2023-04-27T13:08:59;1.40;;;1.30;;
7116;SDS011;3600;48.568;7.870;2023-04-27T13:11:26;1.83;;;1.73;;
7116;SDS011;3600;48.568;7.870;2023-04-27T13:13:53;1.40;;;1.30;;
7116;SDS011;3600;48.568;7.870;2023-04-27T13:16:20;1.80;;;1.50;;
7116;SDS011;3600;48.568;7.870;2023-04-27T13:18:50;1.77;;;1.10;;
7116;SDS011;3600;48.568;7.870;2023-04-27T13:21:18;1.75;;;1.40;;
7116;SDS011;3600;48.568;7.870;2023-04-27T13:23:45;1.02;;;1.02;;
7116;SDS011;3600;48.568;7.870;2023-04-27T13:26:13;1.20;;;1.20;;
7116;SDS011;3600;48.568;7.870;2023-04-27T13:28:41;1.80;;;1.38;;
7116;SDS011;3600;48.568;7.870;2023-04-27T13:31:08;2.08;;;1.70;;
7116;SDS011;3600;48.568;7.870;2023-04-27T13:33:42;1.90;;;1.42;;
7116;SDS011;3600;48.568;7.870;2023-04-27T13:36:10;1.33;;;1.27;;
7116;SDS011;3600;48.568;7.870;2023-04-27T13:38:38;1.48;;;1.38;;
7116;SDS011;3600;48.568;7.870;2023-04-27T13:41:05;2.17;;;1.95;;
7116;SDS011;3600;48.568;7.870;2023-04-27T13:43:32;2.42;;;1.70;;
7116;SDS011;3600;48.568;7.870;2023-04-27T13:46:02;2.80;;;1.75;;
7116;SDS011;3600;48.568;7.870;2023-04-27T13:48:29;3.35;;;2.08;;
7116;SDS011;3600;48.568;7.870;2023-04-27T13:50:56;2.33;;;1.90;;
7116;SDS011;3600;48.568;7.870;2023-04-27T13:53:23;2.05;;;1.80;;
7116;SDS011;3600;48.568;7.870;2023-04-27T13:55:52;1.65;;;1.55;;
7116;SDS011;3600;48.568;7.870;2023-04-27T13:58:19;2.80;;;2.00;;
7116;SDS011;3600;48.568;7.870;2023-04-27T14:00:48;3.17;;;1.80;;
7116;SDS011;3600;48.568;7.870;2023-04-27T14:03:17;2.20;;;1.70;;
7116;SDS011;3600;48.568;7.870;2023-04-27T14:05:45;2.72;;;1.60;;
7116;SDS011;3600;48.568;7.870;2023-04-27T14:08:14;1.70;;;1.60;;
7116;SDS011;3600;48.568;7.870;2023-04-27T14:10:41;1.92;;;1.48;;
7116;SDS011;3600;48.568;7.870;2023-04-27T14:13:08;2.05;;;1.70;;
7116;SDS011;3600;48.568;7.870;2023-04-27T14:15:35;1.40;;;1.40;;
7116;SDS011;3600;48.568;7.870;2023-04-27T14:18:03;1.95;;;1.80;;
7116;SDS011;3600;48.568;7.870;2023-04-27T14:20:32;1.63;;;1.35;;
7116;SDS011;3600;48.568;7.870;2023-04-27T14:23:00;2.85;;;2.10;;
7116;SDS011;3600;48.568;7.870;2023-04-27T14:25:27;1.77;;;1.50;;
7116;SDS011;3600;48.568;7.870;2023-04-27T14:27:58;1.83;;;1.52;;
7116;SDS011;3600;48.568;7.870;2023-04-27T14:30:26;3.42;;;1.90;;
7116;SDS011;3600;48.568;7.870;2023-04-27T14:32:53;3.00;;;2.03;;
7116;SDS011;3600;48.568;7.870;2023-04-27T14:35:21;1.95;;;1.67;;
7116;SDS011;3600;48.568;7.870;2023-04-27T14:37:49;3.13;;;2.10;;
7116;SDS011;3600;48.568;7.870;2023-04-27T14:40:17;2.15;;;1.95;;
7116;SDS011;3600;48.568;7.870;2023-04-27T14:42:44;3.28;;;1.63;;
7116;SDS011;3600;48.568;7.870;2023-04-27T14:45:12;1.70;;;1.60;;
7116;SDS011;3600;48.568;7.870;2023-04-27T14:47:39;2.28;;;1.90;;
7116;SDS011;3600;48.568;7.870;2023-04-27T14:50:06;4.38;;;1.95;;
7116;SDS011;3600;48.568;7.870;2023-04-27T14:52:33;1.52;;;1.42;;
7116;SDS011;3600;48.568;7.870;2023-04-27T14:55:00;1.70;;;1.60;;
7116;SDS011;3600;48.568;7.870;2023-04-27T14:57:27;1.70;;;1.60;;
7116;SDS011;3600;48.568;7.870;2023-04-27T14:59:54;2.20;;;1.73;;
7116;SDS011;3600;48.568;7.870;2023-04-27T15:02:22;1.88;;;1.75;;
7116;SDS011;3600;48.568;7.870;2023-04-27T15:04:48;2.83;;;1.70;;
7116;SDS011;3600;48.568;7.870;2023-04-27T15:07:16;1.45;;;1.30;;
7116;SDS011;3600;48.568;7.870;2023-04-27T15:09:45;1.65;;;1.55;;
7116;SDS011;3600;48.568;7.870;2023-04-27T15:12:12;2.80;;;1.63;;
7116;SDS011;3600;48.568;7.870;2023-04-27T15:14:38;1.45;;;1.42;;
7116;SDS011;3600;48.568;7.870;2023-04-27T15:17:05;2.40;;;1.70;;
7116;SDS011;3600;48.568;7.870;2023-04-27T15:19:33;1.95;;;1.70;;
7116;SDS011;3600;48.568;7.870;2023-04-27T15:22:00;2.00;;;1.90;;
7116;SDS011;3600;48.568;7.870;2023-04-27T15:24:27;1.65;;;1.55;;
7116;SDS011;3600;48.568;7.870;2023-04-27T15:26:54;2.13;;;1.52;;
7116;SDS011;3600;48.568;7.870;2023-04-27T15:29:22;1.77;;;1.58;;
7116;SDS011;3600;48.568;7.870;2023-04-27T15:31:48;1.88;;;1.45;;
7116;SDS011;3600;48.568;7.870;2023-04-27T15:34:16;5.20;;;1.85;;
7116;SDS011;3600;48.568;7.870;2023-04-27T15:36:42;1.70;;;1.60;;
7116;SDS011;3600;48.568;7.870;2023-04-27T15:39:09;3.47;;;1.75;;
7116;SDS011;3600;48.568;7.870;2023-04-27T15:41:37;1.42;;;1.30;;
7116;SDS011;3600;48.568;7.870;2023-04-27T15:44:04;1.65;;;1.50;;
7116;SDS011;3600;48.568;7.870;2023-04-27T15:46:31;2.00;;;1.42;;
7116;SDS011;3600;48.568;7.870;2023-04-27T15:48:58;3.42;;;1.83;;
7116;SDS011;3600;48.568;7.870;2023-04-27T15:51:25;2.00;;;1.90;;
7116;SDS011;3600;48.568;7.870;2023-04-27T15:53:53;1.67;;;1.58;;
7116;SDS011;3600;48.568;7.870;2023-04-27T15:56:20;2.55;;;1.63;;
7116;SDS011;3600;48.568;7.870;2023-04-27T15:58:47;2.80;;;1.80;;
7116;SDS011;3600;48.568;7.870;2023-04-27T16:01:14;3.05;;;1.42;;
7116;SDS011;3600;48.568;7.870;2023-04-27T16:03:40;1.90;;;1.60;;
7116;SDS011;3600;48.568;7.870;2023-04-27T16:06:07;7.28;;;3.38;;
7116;SDS011;3600;48.568;7.870;2023-04-27T16:08:34;3.33;;;2.13;;